createdAt,value
2023-03-13T00:00:12.474Z,1.75
2023-03-13T00:01:37.949Z,1.72
2023-03-13T00:02:40.602Z,1.76
2023-03-13T00:03:43.374Z,1.73
2023-03-13T00:04:46.119Z,1.74
2023-03-13T00:05:48.797Z,1.75
2023-03-13T00:06:51.484Z,1.75
2023-03-13T00:07:54.241Z,1.75
2023-03-13T00:08:57.057Z,1.77
2023-03-13T00:10:00.049Z,1.81
2023-03-13T00:11:04.377Z,1.81
2023-03-13T00:12:07.265Z,1.82
2023-03-13T00:13:09.981Z,1.83
2023-03-13T00:14:12.929Z,1.83
2023-03-13T00:15:15.694Z,1.85
2023-03-13T00:16:18.414Z,1.85
2023-03-13T00:17:21.097Z,1.86
2023-03-13T00:18:23.791Z,1.86
2023-03-13T00:19:26.452Z,1.87
2023-03-13T00:20:29.795Z,1.88
2023-03-13T00:21:33.283Z,1.88
2023-03-13T00:22:36.008Z,1.90
2023-03-13T00:23:39.003Z,1.91
2023-03-13T00:24:41.683Z,1.92
2023-03-13T00:25:44.389Z,1.90
2023-03-13T00:26:47.047Z,1.94
2023-03-13T00:27:49.787Z,1.92
2023-03-13T00:28:53.160Z,1.92
2023-03-13T00:29:55.870Z,1.93
2023-03-13T00:31:05.409Z,1.94
2023-03-13T00:32:08.143Z,1.97
2023-03-13T00:33:11.002Z,1.96
2023-03-13T00:34:13.734Z,1.97
2023-03-13T00:35:16.587Z,1.95
2023-03-13T00:36:21.060Z,1.97
2023-03-13T00:37:24.446Z,1.99
2023-03-13T00:38:28.297Z,1.96
2023-03-13T00:39:31.024Z,2.00
2023-03-13T00:40:33.673Z,2.01
2023-03-13T00:41:37.057Z,2.04
2023-03-13T00:42:41.083Z,2.03
2023-03-13T00:43:44.411Z,2.05
2023-03-13T00:44:47.269Z,2.08
2023-03-13T00:45:50.016Z,2.07
2023-03-13T00:46:52.765Z,2.08
2023-03-13T00:47:55.617Z,2.09
2023-03-13T00:48:58.289Z,2.14
2023-03-13T00:50:00.970Z,2.12
2023-03-13T00:51:03.977Z,2.17
2023-03-13T00:52:07.016Z,2.18
2023-03-13T00:53:09.706Z,2.19
2023-03-13T00:54:12.376Z,2.17
2023-03-13T00:55:15.196Z,2.21
2023-03-13T00:56:19.237Z,2.20
2023-03-13T00:57:21.895Z,2.19
2023-03-13T00:58:26.044Z,2.21
2023-03-13T00:59:28.791Z,2.22
2023-03-13T01:00:31.493Z,2.28
2023-03-13T01:01:35.801Z,2.26
2023-03-13T01:02:41.597Z,2.30
2023-03-13T01:03:46.473Z,2.32
2023-03-13T01:04:49.139Z,2.31
2023-03-13T01:05:55.522Z,2.32
2023-03-13T01:06:58.349Z,2.35
2023-03-13T01:08:01.029Z,2.34
2023-03-13T01:09:05.131Z,2.33
2023-03-13T01:10:07.971Z,2.34
2023-03-13T01:11:12.464Z,2.35
2023-03-13T01:12:15.150Z,2.35
2023-03-13T01:13:17.800Z,2.35
2023-03-13T01:14:20.545Z,2.39
2023-03-13T01:15:24.320Z,2.38
2023-03-13T01:16:27.764Z,2.38
2023-03-13T01:17:30.780Z,2.38
2023-03-13T01:18:34.093Z,2.40
2023-03-13T01:19:36.828Z,2.39
2023-03-13T01:20:40.987Z,2.40
2023-03-13T01:21:44.583Z,2.41
2023-03-13T01:22:47.426Z,2.42
2023-03-13T01:23:50.960Z,2.43
2023-03-13T01:24:54.012Z,2.44
2023-03-13T01:25:57.098Z,2.46
2023-03-13T01:26:59.775Z,2.46
2023-03-13T01:28:02.509Z,2.47
2023-03-13T01:29:05.313Z,2.48
2023-03-13T01:30:08.377Z,2.48
2023-03-13T01:31:15.031Z,2.52
2023-03-13T01:32:17.825Z,2.52
2023-03-13T01:33:20.514Z,2.50
2023-03-13T01:34:23.386Z,2.54
2023-03-13T01:35:27.452Z,2.51
2023-03-13T01:36:30.379Z,2.52
2023-03-13T01:37:33.654Z,2.55
2023-03-13T01:38:36.730Z,2.53
2023-03-13T01:39:39.463Z,2.53
2023-03-13T01:40:43.331Z,2.56
2023-03-13T01:41:45.991Z,2.56
2023-03-13T01:42:49.729Z,2.55
2023-03-13T01:43:52.722Z,2.56
2023-03-13T01:44:57.034Z,2.57
2023-03-13T01:46:01.239Z,2.62
2023-03-13T01:47:08.027Z,2.64
2023-03-13T01:48:30.117Z,2.66
2023-03-13T01:49:34.725Z,2.67
2023-03-13T01:50:47.335Z,2.65
2023-03-13T01:52:04.010Z,2.69
2023-03-13T01:53:08.148Z,2.70
2023-03-13T01:54:10.853Z,2.68
2023-03-13T01:55:16.366Z,2.70
2023-03-13T01:56:25.500Z,2.75
2023-03-13T01:57:32.529Z,2.75
2023-03-13T01:58:36.738Z,2.74
2023-03-13T01:59:49.161Z,2.75
2023-03-13T02:00:51.916Z,2.79
2023-03-13T02:01:57.548Z,2.75
2023-03-13T02:03:04.178Z,2.80
2023-03-13T02:04:09.768Z,2.77
2023-03-13T02:05:14.259Z,2.77
2023-03-13T02:06:17.764Z,2.77
2023-03-13T02:07:23.854Z,2.81
2023-03-13T02:08:52.609Z,2.81
2023-03-13T02:09:56.871Z,2.81
2023-03-13T02:11:07.559Z,2.78
2023-03-13T02:12:11.728Z,2.81
2023-03-13T02:13:15.481Z,2.80
2023-03-13T02:14:22.256Z,2.78
2023-03-13T02:15:26.023Z,2.77
2023-03-13T02:16:29.438Z,2.81
2023-03-13T02:17:33.932Z,2.78
2023-03-13T02:18:38.330Z,2.80
2023-03-13T02:19:42.318Z,2.78
2023-03-13T02:20:45.195Z,2.78
2023-03-13T02:22:06.771Z,2.81
2023-03-13T02:23:28.042Z,2.81
2023-03-13T02:24:38.141Z,2.79
2023-03-13T02:25:48.262Z,2.78
2023-03-13T02:26:53.086Z,2.78
2023-03-13T02:27:55.861Z,2.83
2023-03-13T02:28:58.626Z,2.81
2023-03-13T02:30:04.288Z,2.77
2023-03-13T02:31:08.065Z,2.81
2023-03-13T02:32:11.228Z,2.81
2023-03-13T02:33:14.829Z,2.80
2023-03-13T02:34:20.649Z,2.80
2023-03-13T02:35:24.287Z,2.78
2023-03-13T02:36:28.421Z,2.77
2023-03-13T02:37:32.158Z,2.78
2023-03-13T02:38:45.129Z,2.80
2023-03-13T02:39:50.206Z,2.80
2023-03-13T02:40:53.739Z,2.79
2023-03-13T02:41:57.490Z,2.76
2023-03-13T02:43:02.957Z,2.78
2023-03-13T02:44:06.918Z,2.75
2023-03-13T02:45:10.531Z,2.75
2023-03-13T02:46:15.342Z,2.75
2023-03-13T02:47:21.036Z,2.76
2023-03-13T02:48:34.649Z,2.78
2023-03-13T02:49:37.400Z,2.78
2023-03-13T02:50:40.149Z,2.75
2023-03-13T02:51:44.912Z,2.74
2023-03-13T02:52:56.205Z,2.75
2023-03-13T02:54:02.265Z,2.78
2023-03-13T02:55:09.521Z,2.78
2023-03-13T02:56:13.278Z,2.77
2023-03-13T02:57:15.944Z,2.74
2023-03-13T02:58:18.720Z,2.76
2023-03-13T02:59:21.578Z,2.74
2023-03-13T03:00:26.880Z,2.77
2023-03-13T03:01:30.719Z,2.77
2023-03-13T03:02:33.586Z,2.74
2023-03-13T03:03:37.056Z,2.76
2023-03-13T03:04:39.774Z,2.76
2023-03-13T03:05:42.528Z,2.75
2023-03-13T03:06:45.274Z,2.78
2023-03-13T03:07:48.874Z,2.75
2023-03-13T03:08:51.597Z,2.75
2023-03-13T03:09:54.332Z,2.74
2023-03-13T03:10:57.091Z,2.74
2023-03-13T03:12:00.049Z,2.74
2023-03-13T03:13:03.813Z,2.74
2023-03-13T03:14:06.870Z,2.74
2023-03-13T03:15:13.108Z,2.74
2023-03-13T03:16:20.702Z,2.77
2023-03-13T03:17:23.439Z,2.77
2023-03-13T03:18:26.276Z,2.75
2023-03-13T03:19:29.099Z,2.75
2023-03-13T03:20:31.974Z,2.79
2023-03-13T03:21:34.724Z,2.80
2023-03-13T03:22:38.690Z,2.78
2023-03-13T03:23:41.384Z,2.80
2023-03-13T03:24:44.196Z,2.80
2023-03-13T03:25:47.145Z,2.78
2023-03-13T03:26:50.134Z,2.79
2023-03-13T03:27:58.238Z,2.81
2023-03-13T03:29:02.055Z,2.79
2023-03-13T03:30:05.439Z,2.81
2023-03-13T03:31:10.118Z,2.82
2023-03-13T03:32:12.958Z,2.82
2023-03-13T03:33:15.653Z,2.83
2023-03-13T03:34:18.353Z,2.83
2023-03-13T03:35:21.883Z,2.84
2023-03-13T03:36:24.659Z,2.84
2023-03-13T03:37:27.573Z,2.85
2023-03-13T03:38:30.521Z,2.85
2023-03-13T03:39:33.289Z,2.85
2023-03-13T03:40:36.522Z,2.88
2023-03-13T03:41:39.279Z,2.85
2023-03-13T03:42:42.324Z,2.87
2023-03-13T03:43:45.219Z,2.85
2023-03-13T03:44:49.372Z,2.88
2023-03-13T03:45:52.211Z,2.86
2023-03-13T03:46:55.463Z,2.89
2023-03-13T03:48:01.339Z,2.86
2023-03-13T03:49:04.127Z,2.89
2023-03-13T03:50:07.763Z,2.85
2023-03-13T03:51:16.100Z,2.88
2023-03-13T03:52:20.179Z,2.85
2023-03-13T03:53:24.294Z,2.85
2023-03-13T03:54:27.063Z,2.85
2023-03-13T03:55:29.757Z,2.88
2023-03-13T03:56:32.641Z,2.84
2023-03-13T03:57:35.673Z,2.88
2023-03-13T03:58:39.756Z,2.85
2023-03-13T03:59:48.232Z,2.88
2023-03-13T04:00:51.439Z,2.83
2023-03-13T04:01:54.230Z,2.84
2023-03-13T04:02:59.573Z,2.86
2023-03-13T04:04:02.447Z,2.87
2023-03-13T04:05:05.801Z,2.84
2023-03-13T04:06:10.610Z,2.84
2023-03-13T04:07:13.788Z,2.85
2023-03-13T04:08:16.902Z,2.86
2023-03-13T04:09:19.661Z,2.84
2023-03-13T04:10:22.806Z,2.89
2023-03-13T04:11:25.471Z,2.84
2023-03-13T04:12:30.548Z,2.87
2023-03-13T04:13:33.614Z,2.84
2023-03-13T04:14:36.371Z,2.84
2023-03-13T04:15:42.255Z,2.87
2023-03-13T04:16:46.468Z,2.88
2023-03-13T04:17:50.970Z,2.88
2023-03-13T04:18:56.184Z,2.87
2023-03-13T04:20:01.502Z,2.88
2023-03-13T04:21:06.265Z,2.87
2023-03-13T04:22:29.201Z,2.86
2023-03-13T04:23:33.970Z,2.86
2023-03-13T04:24:36.755Z,2.85
2023-03-13T04:25:39.591Z,2.85
2023-03-13T04:26:45.038Z,2.82
2023-03-13T04:27:48.049Z,2.80
2023-03-13T04:28:51.091Z,2.81
2023-03-13T04:29:58.856Z,2.82
2023-03-13T04:31:01.612Z,2.80
2023-03-13T04:32:23.168Z,2.82
2023-03-13T04:33:38.415Z,2.81
2023-03-13T04:35:02.209Z,2.81
2023-03-13T04:36:34.003Z,2.82
2023-03-13T04:37:55.370Z,2.78
2023-03-13T04:39:06.482Z,2.80
2023-03-13T04:40:38.848Z,2.80
2023-03-13T04:41:55.163Z,2.80
2023-03-13T04:43:18.267Z,2.77
2023-03-13T04:44:40.046Z,2.79
2023-03-13T04:46:02.552Z,2.77
2023-03-13T04:47:38.929Z,2.75
2023-03-13T04:49:02.046Z,2.80
2023-03-13T04:50:20.269Z,2.76
2023-03-13T04:51:34.362Z,2.81
2023-03-13T04:53:00.772Z,2.78
2023-03-13T04:54:19.581Z,2.81
2023-03-13T04:55:41.230Z,2.82
2023-03-13T04:57:02.572Z,2.81
2023-03-13T04:58:16.219Z,2.82
2023-03-13T04:59:23.852Z,2.80
2023-03-13T05:00:36.231Z,2.81
2023-03-13T05:01:46.009Z,2.82
2023-03-13T05:03:06.252Z,2.86
2023-03-13T05:04:25.586Z,2.86
2023-03-13T05:05:51.132Z,2.85
2023-03-13T05:06:53.828Z,2.87
2023-03-13T05:08:36.260Z,2.85
2023-03-13T05:09:57.647Z,2.89
2023-03-13T05:11:23.920Z,2.92
2023-03-13T05:12:52.510Z,2.91
2023-03-13T05:14:11.641Z,2.94
2023-03-13T05:15:26.277Z,2.93
2023-03-13T05:16:38.920Z,2.95
2023-03-13T05:17:50.783Z,2.97
2023-03-13T05:18:57.589Z,2.96
2023-03-13T05:20:16.564Z,2.99
2023-03-13T05:21:36.546Z,2.98
2023-03-13T05:22:58.493Z,3.02
2023-03-13T05:24:33.281Z,2.99
2023-03-13T05:25:55.579Z,3.03
2023-03-13T05:27:16.954Z,3.04
2023-03-13T05:28:30.024Z,3.06
2023-03-13T05:29:50.657Z,3.08
2023-03-13T05:31:13.796Z,3.09
2023-03-13T05:32:25.911Z,3.10
2023-03-13T05:34:01.248Z,3.13
2023-03-13T05:35:20.756Z,3.14
2023-03-13T05:36:42.382Z,3.15
2023-03-13T05:37:50.878Z,3.16
2023-03-13T05:38:53.915Z,3.17
2023-03-13T05:40:05.879Z,3.19
2023-03-13T05:41:18.047Z,3.20
2023-03-13T05:42:39.452Z,3.22
2023-03-13T05:44:00.235Z,3.22
2023-03-13T05:45:22.941Z,3.23
2023-03-13T05:46:31.626Z,3.24
2023-03-13T05:47:54.644Z,3.25
2023-03-13T05:49:17.728Z,3.26
2023-03-13T05:50:38.812Z,3.27
2023-03-13T05:51:56.304Z,3.28
2023-03-13T05:53:17.054Z,3.29
2023-03-13T05:54:40.858Z,3.30
2023-03-13T05:56:00.384Z,3.31
2023-03-13T05:57:18.378Z,3.32
2023-03-13T05:58:47.266Z,3.33
2023-03-13T06:00:09.041Z,3.34
2023-03-13T06:01:25.200Z,3.35
2023-03-13T06:02:33.541Z,3.36
2023-03-13T06:03:36.423Z,3.37
2023-03-13T06:04:39.609Z,3.38
2023-03-13T06:05:42.653Z,3.36
2023-03-13T06:06:57.011Z,3.39
2023-03-13T06:08:00.394Z,3.36
2023-03-13T06:09:03.407Z,3.37
2023-03-13T06:10:08.239Z,3.37
2023-03-13T06:11:11.119Z,3.42
2023-03-13T06:12:14.384Z,3.42
2023-03-13T06:13:20.307Z,3.41
2023-03-13T06:14:26.706Z,3.45
2023-03-13T06:15:57.032Z,3.42
2023-03-13T06:17:18.588Z,3.45
2023-03-13T06:18:21.292Z,3.46
2023-03-13T06:19:24.545Z,3.50
2023-03-13T06:20:27.367Z,3.48
2023-03-13T06:21:30.182Z,3.54
2023-03-13T06:22:32.939Z,3.50
2023-03-13T06:23:36.179Z,3.52
2023-03-13T06:24:39.318Z,3.54
2023-03-13T06:25:42.011Z,3.54
2023-03-13T06:26:44.770Z,3.59
2023-03-13T06:27:47.427Z,3.60
2023-03-13T06:28:50.320Z,3.61
2023-03-13T06:29:53.112Z,3.61
2023-03-13T06:30:55.774Z,3.64
2023-03-13T06:31:58.552Z,3.65
2023-03-13T06:33:01.523Z,3.66
2023-03-13T06:34:04.291Z,3.68
2023-03-13T06:35:07.030Z,3.70
2023-03-13T06:36:09.957Z,3.69
2023-03-13T06:37:12.787Z,3.71
2023-03-13T06:38:15.609Z,3.72
2023-03-13T06:39:18.290Z,3.75
2023-03-13T06:40:21.108Z,3.77
2023-03-13T06:41:24.567Z,3.78
2023-03-13T06:42:27.289Z,3.81
2023-03-13T06:43:30.118Z,3.83
2023-03-13T06:44:32.958Z,3.85
2023-03-13T06:45:36.202Z,3.87
2023-03-13T06:46:38.897Z,3.91
2023-03-13T06:47:41.576Z,3.91
2023-03-13T06:48:44.818Z,3.93
2023-03-13T06:49:47.466Z,3.97
2023-03-13T06:50:50.286Z,3.96
2023-03-13T06:51:52.979Z,4.00
2023-03-13T06:52:55.719Z,4.02
2023-03-13T06:53:58.402Z,4.02
2023-03-13T06:55:01.130Z,4.04
2023-03-13T06:56:03.935Z,4.07
2023-03-13T06:57:06.608Z,4.08
2023-03-13T06:58:16.149Z,4.09
2023-03-13T06:59:24.354Z,4.11
2023-03-13T07:00:27.016Z,4.12
2023-03-13T07:01:29.720Z,4.15
2023-03-13T07:02:32.868Z,4.18
2023-03-13T07:03:36.005Z,4.18
2023-03-13T07:04:44.178Z,4.23
2023-03-13T07:05:47.851Z,4.27
2023-03-13T07:06:51.148Z,4.26
2023-03-13T07:07:53.808Z,4.31
2023-03-13T07:08:56.709Z,4.33
2023-03-13T07:09:59.624Z,4.34
2023-03-13T07:11:03.538Z,4.37
2023-03-13T07:12:06.472Z,4.40
2023-03-13T07:13:09.195Z,4.46
2023-03-13T07:14:16.969Z,4.44
2023-03-13T07:15:20.826Z,4.49
2023-03-13T07:16:23.546Z,4.48
2023-03-13T07:17:26.293Z,4.52
2023-03-13T07:18:29.013Z,4.53
2023-03-13T07:19:31.687Z,4.55
2023-03-13T07:20:34.406Z,4.58
2023-03-13T07:21:37.535Z,4.60
2023-03-13T07:22:40.221Z,4.66
2023-03-13T07:23:42.945Z,4.66
2023-03-13T07:24:45.689Z,4.71
2023-03-13T07:26:02.796Z,4.70
2023-03-13T07:27:08.010Z,4.77
2023-03-13T07:28:10.981Z,4.81
2023-03-13T07:29:13.633Z,4.80
2023-03-13T07:30:16.399Z,4.83
2023-03-13T07:31:20.602Z,4.85
2023-03-13T07:32:23.561Z,4.88
2023-03-13T07:33:26.267Z,4.94
2023-03-13T07:34:29.077Z,4.94
2023-03-13T07:35:32.002Z,4.97
2023-03-13T07:36:35.550Z,5.02
2023-03-13T07:37:38.255Z,5.02
2023-03-13T07:38:41.098Z,5.08
2023-03-13T07:39:44.072Z,5.08
2023-03-13T07:40:53.783Z,5.12
2023-03-13T07:41:56.536Z,5.17
2023-03-13T07:42:59.201Z,5.22
2023-03-13T07:44:01.968Z,5.25
2023-03-13T07:45:04.772Z,5.31
2023-03-13T07:46:09.389Z,5.32
2023-03-13T07:47:12.151Z,5.37
2023-03-13T07:48:14.834Z,5.42
2023-03-13T07:49:17.584Z,5.47
2023-03-13T07:50:20.738Z,5.52
2023-03-13T07:51:36.853Z,5.62
2023-03-13T07:52:43.357Z,5.70
2023-03-13T07:53:47.747Z,5.73
2023-03-13T07:54:50.397Z,5.78
2023-03-13T07:55:54.009Z,5.89
2023-03-13T07:56:56.639Z,5.92
2023-03-13T07:57:59.280Z,5.98
2023-03-13T07:59:01.947Z,6.07
2023-03-13T08:00:06.479Z,6.10
2023-03-13T08:01:19.636Z,6.20
2023-03-13T08:02:22.395Z,6.21
2023-03-13T08:03:25.590Z,6.25
2023-03-13T08:04:28.290Z,6.29
2023-03-13T08:05:30.922Z,6.33
2023-03-13T08:06:37.150Z,6.36
2023-03-13T08:07:39.827Z,6.40
2023-03-13T08:08:43.090Z,6.42
2023-03-13T08:09:46.031Z,6.44
2023-03-13T08:10:48.698Z,6.47
2023-03-13T08:11:51.448Z,6.54
2023-03-13T08:12:54.123Z,6.56
2023-03-13T08:13:58.296Z,6.57
2023-03-13T08:15:00.946Z,6.56
2023-03-13T08:16:07.823Z,6.58
2023-03-13T08:17:10.617Z,6.62
2023-03-13T08:18:13.285Z,6.62
2023-03-13T08:19:16.058Z,6.67
2023-03-13T08:20:21.981Z,6.66
2023-03-13T08:21:26.450Z,6.71
2023-03-13T08:22:29.172Z,6.71
2023-03-13T08:23:32.116Z,6.72
2023-03-13T08:24:34.799Z,6.74
2023-03-13T08:25:37.420Z,6.79
2023-03-13T08:26:40.979Z,6.78
2023-03-13T08:27:43.973Z,6.83
2023-03-13T08:28:47.786Z,6.83
2023-03-13T08:29:50.467Z,6.86
2023-03-13T08:30:53.332Z,6.94
2023-03-13T08:31:56.033Z,6.94
2023-03-13T08:32:58.778Z,6.99
2023-03-13T08:34:01.771Z,7.06
2023-03-13T08:35:04.885Z,7.10
2023-03-13T08:36:21.796Z,7.15
2023-03-13T08:37:24.476Z,7.20
2023-03-13T08:38:27.142Z,7.26
2023-03-13T08:39:29.779Z,7.27
2023-03-13T08:40:32.439Z,7.31
2023-03-13T08:41:36.686Z,7.37
2023-03-13T08:42:40.300Z,7.42
2023-03-13T08:43:43.458Z,7.46
2023-03-13T08:44:46.101Z,7.51
2023-03-13T08:45:54.267Z,7.56
2023-03-13T08:46:57.745Z,7.66
2023-03-13T08:48:00.648Z,7.72
2023-03-13T08:49:04.111Z,7.81
2023-03-13T08:50:07.046Z,7.86
2023-03-13T08:51:10.958Z,7.98
2023-03-13T08:52:13.652Z,8.09
2023-03-13T08:53:16.334Z,8.19
2023-03-13T08:54:19.038Z,8.28
2023-03-13T08:55:21.784Z,8.41
2023-03-13T08:56:26.012Z,8.52
2023-03-13T08:57:28.675Z,8.62
2023-03-13T08:58:31.784Z,8.73
2023-03-13T08:59:34.846Z,8.79
2023-03-13T09:00:37.584Z,8.87
2023-03-13T09:01:40.223Z,8.98
2023-03-13T09:02:42.936Z,9.02
2023-03-13T09:03:45.819Z,9.09
2023-03-13T09:04:48.938Z,9.16
2023-03-13T09:05:56.343Z,9.26
2023-03-13T09:06:59.429Z,9.34
2023-03-13T09:08:02.127Z,9.36
2023-03-13T09:09:06.186Z,9.38
2023-03-13T09:10:09.081Z,9.43
2023-03-13T09:11:16.218Z,9.50
2023-03-13T09:12:30.399Z,9.53
2023-03-13T09:13:35.941Z,9.53
2023-03-13T09:14:38.679Z,9.63
2023-03-13T09:15:41.328Z,9.67
2023-03-13T09:16:46.396Z,9.78
2023-03-13T09:17:49.080Z,9.86
2023-03-13T09:18:52.542Z,9.93
2023-03-13T09:20:00.621Z,9.97
2023-03-13T09:21:05.736Z,10.08
2023-03-13T09:22:09.699Z,10.13
2023-03-13T09:23:12.461Z,10.22
2023-03-13T09:24:15.782Z,10.22
2023-03-13T09:25:18.418Z,10.27
2023-03-13T09:26:23.216Z,10.30
2023-03-13T09:27:28.258Z,10.33
2023-03-13T09:28:31.003Z,10.30
2023-03-13T09:29:33.891Z,10.33
2023-03-13T09:30:36.626Z,10.35
2023-03-13T09:31:41.250Z,10.36
2023-03-13T09:32:43.943Z,10.37
2023-03-13T09:33:48.917Z,10.40
2023-03-13T09:34:51.566Z,10.44
2023-03-13T09:35:54.300Z,10.50
2023-03-13T09:36:57.112Z,10.59
2023-03-13T09:37:59.817Z,10.62
2023-03-13T09:39:02.676Z,10.72
2023-03-13T09:40:05.920Z,10.75
2023-03-13T09:41:17.414Z,10.79
2023-03-13T09:42:20.035Z,10.81
2023-03-13T09:43:35.446Z,10.86
2023-03-13T09:44:43.467Z,10.87
2023-03-13T09:45:48.295Z,10.94
2023-03-13T09:46:54.175Z,11.01
2023-03-13T09:47:59.532Z,11.07
2023-03-13T09:49:05.238Z,11.13
2023-03-13T09:50:20.818Z,11.16
2023-03-13T09:51:26.008Z,11.16
2023-03-13T09:52:31.721Z,11.24
2023-03-13T09:53:40.111Z,11.22
2023-03-13T09:54:58.863Z,11.22
2023-03-13T09:56:03.866Z,11.25
2023-03-13T09:57:19.422Z,11.30
2023-03-13T09:58:24.634Z,11.29
2023-03-13T09:59:48.178Z,11.29
2023-03-13T10:00:55.892Z,11.28
2023-03-13T10:02:00.565Z,11.29
2023-03-13T10:03:07.905Z,11.31
2023-03-13T10:04:19.742Z,11.30
2023-03-13T10:05:24.216Z,11.33
2023-03-13T10:06:28.894Z,11.29
2023-03-13T10:07:31.785Z,11.27
2023-03-13T10:08:35.143Z,11.27
2023-03-13T10:09:38.235Z,11.27
2023-03-13T10:10:45.442Z,11.24
2023-03-13T10:11:54.313Z,11.19
2023-03-13T10:13:02.905Z,11.15
2023-03-13T10:14:11.766Z,11.11
2023-03-13T10:15:31.796Z,11.08
2023-03-13T10:16:34.504Z,11.10
2023-03-13T10:17:40.503Z,11.10
2023-03-13T10:18:48.831Z,11.09
2023-03-13T10:19:56.358Z,11.10
2023-03-13T10:21:01.575Z,11.11
2023-03-13T10:22:10.584Z,11.12
2023-03-13T10:23:16.398Z,11.13
2023-03-13T10:24:25.242Z,11.14
2023-03-13T10:25:35.389Z,11.14
2023-03-13T10:26:38.170Z,11.14
2023-03-13T10:28:02.927Z,11.13
2023-03-13T10:29:22.839Z,11.12
2023-03-13T10:30:30.450Z,11.12
2023-03-13T10:31:34.150Z,11.12
2023-03-13T10:32:36.864Z,11.11
2023-03-13T10:33:40.318Z,11.09
2023-03-13T10:35:00.440Z,11.08
2023-03-13T10:36:08.232Z,11.09
2023-03-13T10:37:14.432Z,11.06
2023-03-13T10:38:21.659Z,11.10
2023-03-13T10:39:26.456Z,11.08
2023-03-13T10:40:29.679Z,11.15
2023-03-13T10:41:36.244Z,11.12
2023-03-13T10:42:43.549Z,11.12
2023-03-13T10:43:50.954Z,11.06
2023-03-13T10:44:59.087Z,11.03
2023-03-13T10:46:03.974Z,11.02
2023-03-13T10:47:06.823Z,11.03
2023-03-13T10:48:15.225Z,11.02
2023-03-13T10:49:18.953Z,11.00
2023-03-13T10:50:23.110Z,11.03
2023-03-13T10:51:31.777Z,11.02
2023-03-13T10:52:41.525Z,11.00
2023-03-13T10:53:44.248Z,11.01
2023-03-13T10:54:46.875Z,11.07
2023-03-13T10:55:49.969Z,11.07
2023-03-13T10:57:07.022Z,11.09
2023-03-13T10:58:16.101Z,11.07
2023-03-13T10:59:21.804Z,11.08
2023-03-13T11:00:30.659Z,11.09
2023-03-13T11:01:42.645Z,11.10
2023-03-13T11:02:45.435Z,11.11
2023-03-13T11:03:49.542Z,11.14
2023-03-13T11:04:54.096Z,11.20
2023-03-13T11:06:01.479Z,11.20
2023-03-13T11:07:06.591Z,11.21
2023-03-13T11:08:22.910Z,11.30
2023-03-13T11:09:27.713Z,11.30
2023-03-13T11:10:30.636Z,11.39
2023-03-13T11:11:43.784Z,11.44
2023-03-13T11:12:48.046Z,11.45
2023-03-13T11:13:51.052Z,11.56
2023-03-13T11:14:57.542Z,11.59
2023-03-13T11:16:03.184Z,11.62
2023-03-13T11:17:22.036Z,11.66
2023-03-13T11:18:29.450Z,11.72
2023-03-13T11:19:43.826Z,11.75
2023-03-13T11:20:47.111Z,11.79
2023-03-13T11:22:04.912Z,11.82
2023-03-13T11:23:13.568Z,11.85
2023-03-13T11:24:28.608Z,11.89
2023-03-13T11:25:36.071Z,11.96
2023-03-13T11:26:44.674Z,12.04
2023-03-13T11:27:51.065Z,12.12
2023-03-13T11:29:12.096Z,12.21
2023-03-13T11:30:33.892Z,12.26
2023-03-13T11:31:41.505Z,12.33
2023-03-13T11:32:44.320Z,12.38
2023-03-13T11:33:58.500Z,12.44
2023-03-13T11:35:04.729Z,12.51
2023-03-13T11:36:07.503Z,12.59
2023-03-13T11:37:14.648Z,12.64
2023-03-13T11:38:22.437Z,12.67
2023-03-13T11:39:34.223Z,12.69
2023-03-13T11:40:54.790Z,12.70
2023-03-13T11:42:02.941Z,12.71
2023-03-13T11:43:25.124Z,12.75
2023-03-13T11:44:47.324Z,12.77
2023-03-13T11:45:53.250Z,12.78
2023-03-13T11:47:14.517Z,12.79
2023-03-13T11:48:17.206Z,12.80
2023-03-13T11:49:40.767Z,12.81
2023-03-13T11:51:07.836Z,12.84
2023-03-13T11:52:20.803Z,12.87
2023-03-13T11:53:35.858Z,12.89
2023-03-13T11:54:58.846Z,12.89
2023-03-13T11:56:04.629Z,12.91
2023-03-13T11:57:12.450Z,12.93
2023-03-13T11:58:17.948Z,12.93
2023-03-13T11:59:29.782Z,12.93
2023-03-13T12:00:39.086Z,12.93
2023-03-13T12:01:47.419Z,12.94
2023-03-13T12:03:28.795Z,12.92
2023-03-13T12:04:36.991Z,12.89
2023-03-13T12:05:53.812Z,12.84
2023-03-13T12:07:04.262Z,12.82
2023-03-13T12:08:12.543Z,12.80
2023-03-13T12:09:21.207Z,12.78
2023-03-13T12:10:27.485Z,12.76
2023-03-13T12:11:43.880Z,12.74
2023-03-13T12:12:55.614Z,12.70
2023-03-13T12:14:03.237Z,12.69
2023-03-13T12:15:26.155Z,12.65
2023-03-13T12:16:41.553Z,12.62
2023-03-13T12:17:48.643Z,12.58
2023-03-13T12:18:53.155Z,12.53
2023-03-13T12:19:59.293Z,12.49
2023-03-13T12:21:05.555Z,12.44
2023-03-13T12:22:23.179Z,12.37
2023-03-13T12:23:34.887Z,12.33
2023-03-13T12:24:46.231Z,12.30
2023-03-13T12:25:58.557Z,12.27
2023-03-13T12:27:11.715Z,12.25
2023-03-13T12:28:24.074Z,12.24
2023-03-13T12:29:35.701Z,12.22
2023-03-13T12:30:43.868Z,12.20
2023-03-13T12:31:53.551Z,12.17
2023-03-13T12:33:02.155Z,12.14
2023-03-13T12:34:23.984Z,12.08
2023-03-13T12:35:30.454Z,12.05
2023-03-13T12:36:40.495Z,12.06
2023-03-13T12:38:06.604Z,12.04
2023-03-13T12:39:15.479Z,12.00
2023-03-13T12:40:31.213Z,11.97
2023-03-13T12:41:42.076Z,11.92
2023-03-13T12:42:44.898Z,11.88
2023-03-13T12:44:00.757Z,11.85
2023-03-13T12:45:18.722Z,11.80
2023-03-13T12:46:34.847Z,11.77
2023-03-13T12:47:37.612Z,11.72
2023-03-13T12:48:46.416Z,11.67
2023-03-13T12:50:08.294Z,11.64
2023-03-13T12:51:10.964Z,11.60
2023-03-13T12:52:19.865Z,11.56
2023-03-13T12:53:36.166Z,11.53
2023-03-13T12:55:06.912Z,11.47
2023-03-13T12:56:20.400Z,11.42
2023-03-13T12:57:23.107Z,11.39
2023-03-13T12:58:29.501Z,11.36
2023-03-13T12:59:36.282Z,11.33
2023-03-13T13:00:40.864Z,11.30
2023-03-13T13:01:45.865Z,11.27
2023-03-13T13:03:00.898Z,11.23
2023-03-13T13:04:18.495Z,11.19
2023-03-13T13:05:22.212Z,11.14
2023-03-13T13:06:25.313Z,11.11
2023-03-13T13:07:29.401Z,11.09
2023-03-13T13:08:34.693Z,11.07
2023-03-13T13:09:41.950Z,11.05
2023-03-13T13:10:45.081Z,11.03
2023-03-13T13:11:48.931Z,11.01
2023-03-13T13:13:10.798Z,10.99
2023-03-13T13:14:19.438Z,10.95
2023-03-13T13:15:29.169Z,10.91
2023-03-13T13:16:32.330Z,10.89
2023-03-13T13:17:35.068Z,10.91
2023-03-13T13:18:37.801Z,10.87
2023-03-13T13:19:40.403Z,10.89
2023-03-13T13:20:45.175Z,10.86
2023-03-13T13:22:07.813Z,10.84
2023-03-13T13:23:25.860Z,10.82
2023-03-13T13:24:48.947Z,10.81
2023-03-13T13:25:52.160Z,10.80
2023-03-13T13:26:55.154Z,10.80
2023-03-13T13:28:11.557Z,10.79
2023-03-13T13:29:14.228Z,10.76
2023-03-13T13:30:16.866Z,10.77
2023-03-13T13:31:38.163Z,10.73
2023-03-13T13:32:42.213Z,10.67
2023-03-13T13:33:45.261Z,10.65
2023-03-13T13:35:06.748Z,10.66
2023-03-13T13:36:09.513Z,10.61
2023-03-13T13:37:12.266Z,10.59
2023-03-13T13:38:17.701Z,10.56
2023-03-13T13:39:39.209Z,10.53
2023-03-13T13:40:57.710Z,10.47
2023-03-13T13:42:00.687Z,10.48
2023-03-13T13:43:04.871Z,10.46
2023-03-13T13:44:21.525Z,10.44
2023-03-13T13:45:36.275Z,10.40
2023-03-13T13:46:44.312Z,10.37
2023-03-13T13:47:52.525Z,10.34
2023-03-13T13:49:13.865Z,10.31
2023-03-13T13:50:16.493Z,10.29
2023-03-13T13:51:20.384Z,10.31
2023-03-13T13:52:32.280Z,10.29
2023-03-13T13:53:43.271Z,10.27
2023-03-13T13:54:45.901Z,10.26
2023-03-13T13:55:48.774Z,10.24
2023-03-13T13:56:58.737Z,10.23
2023-03-13T13:58:05.976Z,10.18
2023-03-13T13:59:20.769Z,10.15
2023-03-13T14:00:25.067Z,10.15
2023-03-13T14:01:27.858Z,10.16
2023-03-13T14:02:38.410Z,10.15
2023-03-13T14:03:42.354Z,10.13
2023-03-13T14:04:47.811Z,10.15
2023-03-13T14:05:53.448Z,10.14
2023-03-13T14:06:59.042Z,10.12
2023-03-13T14:08:08.153Z,10.10
2023-03-13T14:09:34.586Z,10.08
2023-03-13T14:10:42.588Z,10.07
2023-03-13T14:11:45.278Z,10.11
2023-03-13T14:12:53.147Z,10.07
2023-03-13T14:14:09.093Z,10.05
2023-03-13T14:15:14.919Z,10.04
2023-03-13T14:16:27.104Z,10.06
2023-03-13T14:17:31.193Z,10.02
2023-03-13T14:18:33.916Z,10.03
2023-03-13T14:19:39.984Z,10.05
2023-03-13T14:20:53.555Z,10.05
2023-03-13T14:22:19.104Z,10.01
2023-03-13T14:23:49.007Z,10.04
2023-03-13T14:24:58.626Z,10.03
2023-03-13T14:26:17.969Z,10.01
2023-03-13T14:27:22.052Z,9.98
2023-03-13T14:28:28.836Z,10.00
2023-03-13T14:29:31.636Z,10.05
2023-03-13T14:30:34.352Z,10.02
2023-03-13T14:31:38.254Z,10.03
2023-03-13T14:32:41.498Z,10.07
2023-03-13T14:33:44.233Z,10.04
2023-03-13T14:34:47.042Z,10.05
2023-03-13T14:35:50.181Z,10.06
2023-03-13T14:36:57.152Z,10.07
2023-03-13T14:38:04.342Z,10.05
2023-03-13T14:39:07.032Z,10.05
2023-03-13T14:40:20.618Z,10.09
2023-03-13T14:41:29.106Z,10.05
2023-03-13T14:42:38.231Z,10.04
2023-03-13T14:43:41.959Z,10.06
2023-03-13T14:44:47.381Z,10.10
2023-03-13T14:45:51.082Z,10.08